Paradise, California
Current Conditions -  °F | °C
As of 1:17 PM on Friday 19 Dec 2014 (Local Time) from KOVE Reporting Station
Broken Clouds Broken Clouds  
Wind Chill: 13°   Ceiling: 2200
Heat Index: 13°   Visibility: 10mi
Dew Point:   Wind: 15mph
Humidity: 75%   Direction: 140°SE
Pressure: 30.14"   Gusts: NA
Location:  39.75°N, 121.6°W
Report Text: KOVE 192117Z AUTO 14013KT 10SM BKN022 BKN120 13/09 A3014 RMK AO2 T01330089
Loading
Personal Weather Stations






























Interactive Weather Map New forecast layout! Learn more

10-Day Weather Forecast

Advertisements
Track Severe Weather on mobile